sensor_id;sensor_type;location;lat;lon;timestamp;pressure;altitude;pressure_sealevel;temperature;humidity
18918;BME280;9591;52.742;13.650;2023-04-08T00:02:15;101594.59;;;8.41;100.00
18918;BME280;9591;52.742;13.650;2023-04-08T00:05:02;101600.69;;;8.49;100.00
18918;BME280;9591;52.742;13.650;2023-04-08T00:07:49;101602.56;;;8.37;100.00
18918;BME280;9591;52.742;13.650;2023-04-08T00:10:36;101602.47;;;8.47;100.00
18918;BME280;9591;52.742;13.650;2023-04-08T00:13:24;101608.66;;;8.43;100.00
18918;BME280;9591;52.742;13.650;2023-04-08T00:16:11;101605.16;;;8.41;100.00
18918;BME280;9591;52.742;13.650;2023-04-08T00:18:58;101605.16;;;8.43;100.00
18918;BME280;9591;52.742;13.650;2023-04-08T00:21:44;101610.50;;;8.35;100.00
18918;BME280;9591;52.742;13.650;2023-04-08T00:24:32;101614.97;;;8.21;100.00
18918;BME280;9591;52.742;13.650;2023-04-08T00:27:18;101610.63;;;8.15;100.00
18918;BME280;9591;52.742;13.650;2023-04-08T00:30:07;101605.34;;;8.18;100.00
18918;BME280;9591;52.742;13.650;2023-04-08T00:32:54;101605.34;;;8.15;100.00
18918;BME280;9591;52.742;13.650;2023-04-08T00:35:41;101600.84;;;8.30;100.00
18918;BME280;9591;52.742;13.650;2023-04-08T00:38:28;101606.94;;;8.39;100.00
18918;BME280;9591;52.742;13.650;2023-04-08T00:41:15;101606.94;;;8.38;100.00
18918;BME280;9591;52.742;13.650;2023-04-08T00:44:02;101614.09;;;8.20;100.00
18918;BME280;9591;52.742;13.650;2023-04-08T00:46:50;101612.19;;;8.42;100.00
18918;BME280;9591;52.742;13.650;2023-04-08T00:49:37;101607.84;;;8.37;100.00
18918;BME280;9591;52.742;13.650;2023-04-08T00:52:24;101608.78;;;8.25;100.00
18918;BME280;9591;52.742;13.650;2023-04-08T00:55:11;101614.06;;;8.25;100.00
18918;BME280;9591;52.742;13.650;2023-04-08T00:57:57;101618.41;;;8.37;100.00
18918;BME280;9591;52.742;13.650;2023-04-08T01:00:49;101617.41;;;8.48;100.00
18918;BME280;9591;52.742;13.650;2023-04-08T01:03:52;101621.78;;;8.51;100.00
18918;BME280;9591;52.742;13.650;2023-04-08T01:06:46;101627.81;;;8.64;100.00
18918;BME280;9591;52.742;13.650;2023-04-08T01:09:37;101631.50;;;8.47;100.00
18918;BME280;9591;52.742;13.650;2023-04-08T01:12:25;101629.75;;;8.48;100.00
18918;BME280;9591;52.742;13.650;2023-04-08T01:15:14;101633.44;;;8.24;100.00
18918;BME280;9591;52.742;13.650;2023-04-08T01:18:05;101627.19;;;8.39;100.00
18918;BME280;9591;52.742;13.650;2023-04-08T01:20:54;101630.66;;;8.42;100.00
18918;BME280;9591;52.742;13.650;2023-04-08T01:23:55;101628.06;;;8.38;100.00
18918;BME280;9591;52.742;13.650;2023-04-08T01:26:46;101626.28;;;8.43;100.00
18918;BME280;9591;52.742;13.650;2023-04-08T01:29:33;101620.13;;;8.42;100.00
18918;BME280;9591;52.742;13.650;2023-04-08T01:32:24;101621.94;;;8.34;100.00
18918;BME280;9591;52.742;13.650;2023-04-08T01:35:14;101615.78;;;8.34;100.00
18918;BME280;9591;52.742;13.650;2023-04-08T01:38:02;101626.34;;;8.35;100.00
18918;BME280;9591;52.742;13.650;2023-04-08T01:40:51;101623.72;;;8.29;100.00
18918;BME280;9591;52.742;13.650;2023-04-08T01:43:42;101624.59;;;8.31;100.00
18918;BME280;9591;52.742;13.650;2023-04-08T01:46:30;101623.69;;;8.37;100.00
18918;BME280;9591;52.742;13.650;2023-04-08T01:49:17;101631.59;;;8.32;100.00
18918;BME280;9591;52.742;13.650;2023-04-08T01:52:05;101634.25;;;8.32;100.00
18918;BME280;9591;52.742;13.650;2023-04-08T01:54:55;101632.56;;;8.22;100.00
18918;BME280;9591;52.742;13.650;2023-04-08T01:57:44;101635.22;;;8.22;100.00
18918;BME280;9591;52.742;13.650;2023-04-08T02:00:35;101633.38;;;8.36;100.00
18918;BME280;9591;52.742;13.650;2023-04-08T02:03:23;101635.22;;;8.22;100.00
18918;BME280;9591;52.742;13.650;2023-04-08T02:06:11;101610.84;;;7.88;100.00
18918;BME280;9591;52.742;13.650;2023-04-08T02:08:59;101653.75;;;8.14;100.00
18918;BME280;9591;52.742;13.650;2023-04-08T02:11:46;101644.13;;;8.06;100.00
18918;BME280;9591;52.742;13.650;2023-04-08T02:14:33;101646.75;;;8.10;100.00
18918;BME280;9591;52.742;13.650;2023-04-08T02:17:30;101652.88;;;8.14;100.00
18918;BME280;9591;52.742;13.650;2023-04-08T02:20:22;101652.81;;;8.21;100.00
18918;BME280;9591;52.742;13.650;2023-04-08T02:23:13;101654.66;;;8.10;100.00
18918;BME280;9591;52.742;13.650;2023-04-08T02:26:01;101658.13;;;8.17;100.00
18918;BME280;9591;52.742;13.650;2023-04-08T02:28:51;101659.03;;;8.11;100.00
18918;BME280;9591;52.742;13.650;2023-04-08T02:31:40;101656.34;;;8.19;100.00
18918;BME280;9591;52.742;13.650;2023-04-08T02:34:29;101657.19;;;8.24;100.00
18918;BME280;9591;52.742;13.650;2023-04-08T02:37:18;101660.72;;;8.21;100.00
18918;BME280;9591;52.742;13.650;2023-04-08T02:40:23;101662.41;;;8.35;100.00
18918;BME280;9591;52.742;13.650;2023-04-08T02:43:10;101657.09;;;8.39;100.00
18918;BME280;9591;52.742;13.650;2023-04-08T02:45:58;101663.31;;;8.29;100.00
18918;BME280;9591;52.742;13.650;2023-04-08T02:48:48;101672.13;;;8.25;100.00
18918;BME280;9591;52.742;13.650;2023-04-08T02:51:36;101672.22;;;8.14;100.00
18918;BME280;9591;52.742;13.650;2023-04-08T02:54:23;101675.63;;;8.27;100.00
18918;BME280;9591;52.742;13.650;2023-04-08T02:57:09;101675.56;;;8.41;100.00
18918;BME280;9591;52.742;13.650;2023-04-08T02:59:57;101673.88;;;8.28;100.00
18918;BME280;9591;52.742;13.650;2023-04-08T03:02:43;101684.38;;;8.38;100.00
18918;BME280;9591;52.742;13.650;2023-04-08T03:05:31;101670.34;;;8.30;100.00
18918;BME280;9591;52.742;13.650;2023-04-08T03:08:19;101674.75;;;8.28;100.00
18918;BME280;9591;52.742;13.650;2023-04-08T03:11:06;101684.28;;;8.49;100.00
18918;BME280;9591;52.742;13.650;2023-04-08T03:13:53;101677.38;;;8.34;100.00
18918;BME280;9591;52.742;13.650;2023-04-08T03:16:39;101681.72;;;8.40;100.00
18918;BME280;9591;52.742;13.650;2023-04-08T03:19:26;101696.66;;;8.42;100.00
18918;BME280;9591;52.742;13.650;2023-04-08T03:22:13;101694.78;;;8.57;100.00
18918;BME280;9591;52.742;13.650;2023-04-08T03:25:01;101672.13;;;8.28;100.00
18918;BME280;9591;52.742;13.650;2023-04-08T03:27:48;101701.06;;;8.42;100.00
18918;BME280;9591;52.742;13.650;2023-04-08T03:30:35;101705.34;;;8.60;100.00
18918;BME280;9591;52.742;13.650;2023-04-08T03:33:22;101697.59;;;8.35;100.00
18918;BME280;9591;52.742;13.650;2023-04-08T03:36:09;101699.25;;;8.48;100.00
18918;BME280;9591;52.742;13.650;2023-04-08T03:38:56;101694.97;;;8.37;100.00
18918;BME280;9591;52.742;13.650;2023-04-08T03:41:45;101689.72;;;8.25;100.00
18918;BME280;9591;52.742;13.650;2023-04-08T03:44:31;101692.19;;;8.53;100.00
18918;BME280;9591;52.742;13.650;2023-04-08T03:47:18;101694.91;;;8.41;100.00
18918;BME280;9591;52.742;13.650;2023-04-08T03:50:06;101700.09;;;8.53;100.00
18918;BME280;9591;52.742;13.650;2023-04-08T03:52:53;101698.50;;;8.34;100.00
18918;BME280;9591;52.742;13.650;2023-04-08T03:55:40;101718.66;;;8.44;100.00
18918;BME280;9591;52.742;13.650;2023-04-08T03:58:28;101716.09;;;8.35;100.00
18918;BME280;9591;52.742;13.650;2023-04-08T04:01:15;101719.59;;;8.31;100.00
18918;BME280;9591;52.742;13.650;2023-04-08T04:04:01;101722.44;;;7.99;100.00
18918;BME280;9591;52.742;13.650;2023-04-08T04:06:49;101717.88;;;8.27;100.00
18918;BME280;9591;52.742;13.650;2023-04-08T04:09:35;101721.56;;;8.00;100.00
18918;BME280;9591;52.742;13.650;2023-04-08T04:12:22;101722.25;;;8.31;100.00
18918;BME280;9591;52.742;13.650;2023-04-08T04:15:11;101728.50;;;8.18;100.00
18918;BME280;9591;52.742;13.650;2023-04-08T04:17:57;101737.22;;;8.35;100.00
18918;BME280;9591;52.742;13.650;2023-04-08T04:20:45;101727.56;;;8.23;100.00
18918;BME280;9591;52.742;13.650;2023-04-08T04:23:31;101736.38;;;8.21;100.00
18918;BME280;9591;52.742;13.650;2023-04-08T04:26:18;101738.94;;;8.32;100.00
18918;BME280;9591;52.742;13.650;2023-04-08T04:29:05;101735.50;;;8.22;100.00
18918;BME280;9591;52.742;13.650;2023-04-08T04:31:53;101738.94;;;8.32;100.00
18918;BME280;9591;52.742;13.650;2023-04-08T04:34:40;101741.56;;;8.39;100.00
18918;BME280;9591;52.742;13.650;2023-04-08T04:37:28;101736.31;;;8.35;100.00
18918;BME280;9591;52.742;13.650;2023-04-08T04:40:15;101737.94;;;8.54;100.00
18918;BME280;9591;52.742;13.650;2023-04-08T04:43:02;101752.00;;;8.56;100.00
18918;BME280;9591;52.742;13.650;2023-04-08T04:45:49;101751.25;;;8.40;100.00
18918;BME280;9591;52.742;13.650;2023-04-08T04:48:37;101756.41;;;8.56;100.00
18918;BME280;9591;52.742;13.650;2023-04-08T04:51:23;101763.44;;;8.57;100.00
18918;BME280;9591;52.742;13.650;2023-04-08T04:54:11;101762.59;;;8.54;100.00
18918;BME280;9591;52.742;13.650;2023-04-08T04:56:58;101765.25;;;8.51;100.00
18918;BME280;9591;52.742;13.650;2023-04-08T04:59:45;101769.69;;;8.48;100.00
18918;BME280;9591;52.742;13.650;2023-04-08T05:02:32;101761.69;;;8.59;100.00
18918;BME280;9591;52.742;13.650;2023-04-08T05:05:20;101764.22;;;8.68;100.00
18918;BME280;9591;52.742;13.650;2023-04-08T05:08:07;101760.69;;;8.67;100.00
18918;BME280;9591;52.742;13.650;2023-04-08T05:10:54;101768.56;;;8.75;100.00
18918;BME280;9591;52.742;13.650;2023-04-08T05:13:41;101769.47;;;8.71;100.00
18918;BME280;9591;52.742;13.650;2023-04-08T05:16:28;101776.47;;;8.75;100.00
18918;BME280;9591;52.742;13.650;2023-04-08T05:19:15;101775.63;;;8.71;100.00
18918;BME280;9591;52.742;13.650;2023-04-08T05:22:03;101794.41;;;8.35;100.00
18918;BME280;9591;52.742;13.650;2023-04-08T05:24:50;101794.34;;;8.44;100.00
18918;BME280;9591;52.742;13.650;2023-04-08T05:27:37;101799.47;;;8.65;100.00
18918;BME280;9591;52.742;13.650;2023-04-08T05:30:24;101797.75;;;8.63;100.00
18918;BME280;9591;52.742;13.650;2023-04-08T05:33:11;101790.66;;;8.66;100.00
18918;BME280;9591;52.742;13.650;2023-04-08T05:35:58;101793.25;;;8.68;100.00
18918;BME280;9591;52.742;13.650;2023-04-08T05:38:46;101800.47;;;8.50;100.00
18918;BME280;9591;52.742;13.650;2023-04-08T05:41:33;101798.69;;;8.52;100.00
18918;BME280;9591;52.742;13.650;2023-04-08T05:44:20;101809.25;;;8.52;100.00
18918;BME280;9591;52.742;13.650;2023-04-08T05:47:07;101809.03;;;8.77;100.00
18918;BME280;9591;52.742;13.650;2023-04-08T05:49:54;101816.25;;;8.57;100.00
18918;BME280;9591;52.742;13.650;2023-04-08T05:52:41;101822.31;;;8.69;100.00
18918;BME280;9591;52.742;13.650;2023-04-08T05:55:30;101816.06;;;8.78;100.00
18918;BME280;9591;52.742;13.650;2023-04-08T05:58:17;101829.25;;;8.82;100.00
18918;BME280;9591;52.742;13.650;2023-04-08T06:01:04;101831.97;;;8.72;100.00
18918;BME280;9591;52.742;13.650;2023-04-08T06:03:51;101823.84;;;8.98;100.00
18918;BME280;9591;52.742;13.650;2023-04-08T06:06:40;101833.47;;;9.06;100.00
18918;BME280;9591;52.742;13.650;2023-04-08T06:09:27;101828.22;;;9.00;100.00
18918;BME280;9591;52.742;13.650;2023-04-08T06:12:15;101836.16;;;9.02;100.00
18918;BME280;9591;52.742;13.650;2023-04-08T06:15:02;101831.72;;;9.05;100.00
18918;BME280;9591;52.742;13.650;2023-04-08T06:17:49;101836.97;;;9.08;100.00
18918;BME280;9591;52.742;13.650;2023-04-08T06:20:36;101836.81;;;9.25;100.00
18918;BME280;9591;52.742;13.650;2023-04-08T06:23:23;101838.63;;;9.22;100.00
18918;BME280;9591;52.742;13.650;2023-04-08T06:26:10;101843.09;;;9.15;100.00
18918;BME280;9591;52.742;13.650;2023-04-08T06:28:58;101844.69;;;9.31;100.00
18918;BME280;9591;52.742;13.650;2023-04-08T06:31:46;101842.22;;;9.11;100.00
18918;BME280;9591;52.742;13.650;2023-04-08T06:34:33;101843.13;;;9.12;100.00
18918;BME280;9591;52.742;13.650;2023-04-08T06:37:20;101843.91;;;9.22;100.00
18918;BME280;9591;52.742;13.650;2023-04-08T06:40:07;101838.56;;;9.28;100.00
18918;BME280;9591;52.742;13.650;2023-04-08T06:42:54;101843.75;;;9.38;100.00
18918;BME280;9591;52.742;13.650;2023-04-08T06:45:54;101852.44;;;9.52;100.00
18918;BME280;9591;52.742;13.650;2023-04-08T06:48:41;101863.91;;;9.50;100.00
18918;BME280;9591;52.742;13.650;2023-04-08T06:51:28;101857.66;;;9.54;100.00
18918;BME280;9591;52.742;13.650;2023-04-08T06:54:15;101871.97;;;9.36;100.00
18918;BME280;9591;52.742;13.650;2023-04-08T06:57:02;101877.03;;;9.56;100.00
18918;BME280;9591;52.742;13.650;2023-04-08T06:59:49;101874.22;;;9.73;100.00
18918;BME280;9591;52.742;13.650;2023-04-08T07:02:39;101874.19;;;9.76;100.00
18918;BME280;9591;52.742;13.650;2023-04-08T07:05:26;101877.66;;;9.81;100.00
18918;BME280;9591;52.742;13.650;2023-04-08T07:08:13;101891.88;;;9.72;100.00
18918;BME280;9591;52.742;13.650;2023-04-08T07:11:00;101900.59;;;9.80;100.00
18918;BME280;9591;52.742;13.650;2023-04-08T07:13:46;101900.91;;;9.53;100.00
18918;BME280;9591;52.742;13.650;2023-04-08T07:16:33;101902.47;;;9.71;100.00
18918;BME280;9591;52.742;13.650;2023-04-08T07:19:21;101902.50;;;9.69;100.00
18918;BME280;9591;52.742;13.650;2023-04-08T07:22:08;101906.88;;;9.72;100.00
18918;BME280;9591;52.742;13.650;2023-04-08T07:24:55;101903.28;;;9.77;100.00
18918;BME280;9591;52.742;13.650;2023-04-08T07:27:42;101901.41;;;9.89;100.00
18918;BME280;9591;52.742;13.650;2023-04-08T07:30:29;101903.88;;;10.05;100.00
18918;BME280;9591;52.742;13.650;2023-04-08T07:33:16;101908.88;;;10.33;100.00
18918;BME280;9591;52.742;13.650;2023-04-08T07:36:04;101908.66;;;10.46;100.00
18918;BME280;9591;52.742;13.650;2023-04-08T07:38:51;101910.41;;;10.47;100.00
18918;BME280;9591;52.742;13.650;2023-04-08T07:41:38;101908.56;;;10.52;100.00
18918;BME280;9591;52.742;13.650;2023-04-08T07:44:25;101921.16;;;10.38;100.00
18918;BME280;9591;52.742;13.650;2023-04-08T07:47:12;101913.97;;;10.45;100.00
18918;BME280;9591;52.742;13.650;2023-04-08T07:49:58;101909.31;;;10.64;100.00
18918;BME280;9591;52.742;13.650;2023-04-08T07:52:46;101921.53;;;10.74;100.00
18918;BME280;9591;52.742;13.650;2023-04-08T07:55:33;101926.88;;;10.71;100.00
18918;BME280;9591;52.742;13.650;2023-04-08T07:58:20;101925.00;;;10.79;100.00
18918;BME280;9591;52.742;13.650;2023-04-08T08:01:14;101928.47;;;10.84;100.00
18918;BME280;9591;52.742;13.650;2023-04-08T08:04:02;101934.25;;;10.47;100.00
18918;BME280;9591;52.742;13.650;2023-04-08T08:06:50;101930.69;;;10.50;100.00
18918;BME280;9591;52.742;13.650;2023-04-08T08:09:38;101935.13;;;10.48;100.00
18918;BME280;9591;52.742;13.650;2023-04-08T08:12:25;101942.19;;;10.47;100.00
18918;BME280;9591;52.742;13.650;2023-04-08T08:15:11;101939.38;;;10.60;100.00
18918;BME280;9591;52.742;13.650;2023-04-08T08:17:59;101942.63;;;10.11;100.00
18918;BME280;9591;52.742;13.650;2023-04-08T08:20:45;101936.31;;;10.26;100.00
18918;BME280;9591;52.742;13.650;2023-04-08T08:23:32;101945.59;;;10.59;100.00
18918;BME280;9591;52.742;13.650;2023-04-08T08:26:21;101940.91;;;10.79;100.00
18918;BME280;9591;52.742;13.650;2023-04-08T08:29:07;101949.00;;;10.67;100.00
18918;BME280;9591;52.742;13.650;2023-04-08T08:31:54;101947.19;;;10.70;100.00
18918;BME280;9591;52.742;13.650;2023-04-08T08:34:41;101956.06;;;10.68;100.00
18918;BME280;9591;52.742;13.650;2023-04-08T08:37:28;101951.41;;;10.87;100.00
18918;BME280;9591;52.742;13.650;2023-04-08T08:40:15;101952.16;;;10.95;100.00
18918;BME280;9591;52.742;13.650;2023-04-08T08:43:03;101955.44;;;11.12;100.00
18918;BME280;9591;52.742;13.650;2023-04-08T08:45:50;101958.53;;;11.38;100.00
18918;BME280;9591;52.742;13.650;2023-04-08T08:48:37;101958.50;;;11.41;100.00
18918;BME280;9591;52.742;13.650;2023-04-08T08:51:26;101965.28;;;11.59;100.00
18918;BME280;9591;52.742;13.650;2023-04-08T08:54:14;101976.00;;;10.96;100.00
18918;BME280;9591;52.742;13.650;2023-04-08T08:57:01;101968.69;;;11.13;100.00
18918;BME280;9591;52.742;13.650;2023-04-08T08:59:49;101974.53;;;11.32;100.00
18918;BME280;9591;52.742;13.650;2023-04-08T09:02:35;101975.47;;;11.30;100.00
18918;BME280;9591;52.742;13.650;2023-04-08T09:05:22;101975.19;;;11.48;100.00
18918;BME280;9591;52.742;13.650;2023-04-08T09:08:22;101981.97;;;11.66;100.00
18918;BME280;9591;52.742;13.650;2023-04-08T09:11:13;101982.25;;;11.49;100.00
18918;BME280;9591;52.742;13.650;2023-04-08T09:14:00;101985.00;;;11.41;100.00
18918;BME280;9591;52.742;13.650;2023-04-08T09:16:49;101983.78;;;11.62;100.00
18918;BME280;9591;52.742;13.650;2023-04-08T09:19:36;101982.72;;;11.74;100.00
18918;BME280;9591;52.742;13.650;2023-04-08T09:22:23;101994.19;;;11.77;100.00
18918;BME280;9591;52.742;13.650;2023-04-08T09:25:21;101995.56;;;12.00;100.00
18918;BME280;9591;52.742;13.650;2023-04-08T09:28:18;102001.56;;;11.57;100.00
18918;BME280;9591;52.742;13.650;2023-04-08T09:31:20;101919.78;;;10.73;100.00
18918;BME280;9591;52.742;13.650;2023-04-08T09:34:11;101996.31;;;11.54;100.00
18918;BME280;9591;52.742;13.650;2023-04-08T09:36:58;102009.22;;;11.75;100.00
18918;BME280;9591;52.742;13.650;2023-04-08T09:39:45;102006.16;;;12.01;100.00
18918;BME280;9591;52.742;13.650;2023-04-08T09:42:35;102007.22;;;11.91;100.00
18918;BME280;9591;52.742;13.650;2023-04-08T09:45:25;102003.28;;;12.57;100.00
18918;BME280;9591;52.742;13.650;2023-04-08T09:48:17;102005.59;;;12.73;97.45
18918;BME280;9591;52.742;13.650;2023-04-08T09:51:14;101995.13;;;13.06;97.84
18918;BME280;9591;52.742;13.650;2023-04-08T09:54:02;102005.56;;;13.54;92.22
18918;BME280;9591;52.742;13.650;2023-04-08T09:56:57;102009.69;;;13.30;92.02
18918;BME280;9591;52.742;13.650;2023-04-08T09:59:52;102001.44;;;13.40;89.78
18918;BME280;9591;52.742;13.650;2023-04-08T10:02:51;102007.72;;;13.73;89.85
18918;BME280;9591;52.742;13.650;2023-04-08T10:05:42;102007.38;;;13.52;90.19
18918;BME280;9591;52.742;13.650;2023-04-08T10:08:30;102014.34;;;12.78;93.51
18918;BME280;9591;52.742;13.650;2023-04-08T10:11:18;102010.69;;;12.84;94.15
18918;BME280;9591;52.742;13.650;2023-04-08T10:14:08;102008.03;;;13.24;93.15
18918;BME280;9591;52.742;13.650;2023-04-08T10:17:23;102012.19;;;13.73;89.18
18918;BME280;9591;52.742;13.650;2023-04-08T10:20:40;102015.81;;;14.03;87.22
18918;BME280;9591;52.742;13.650;2023-04-08T10:23:55;102015.69;;;14.07;91.83
18918;BME280;9591;52.742;13.650;2023-04-08T10:26:44;102014.22;;;13.96;87.79
18918;BME280;9591;52.742;13.650;2023-04-08T10:29:33;102005.63;;;14.19;88.04
18918;BME280;9591;52.742;13.650;2023-04-08T10:32:39;101999.09;;;14.63;83.61
18918;BME280;9591;52.742;13.650;2023-04-08T10:35:27;102006.13;;;14.95;80.39
18918;BME280;9591;52.742;13.650;2023-04-08T10:38:15;102013.16;;;14.68;78.94
18918;BME280;9591;52.742;13.650;2023-04-08T10:41:03;102012.69;;;14.54;79.11
18918;BME280;9591;52.742;13.650;2023-04-08T10:43:50;102018.16;;;14.15;79.06
18918;BME280;9591;52.742;13.650;2023-04-08T10:46:37;102000.22;;;14.84;82.83
18918;BME280;9591;52.742;13.650;2023-04-08T10:49:31;101974.16;;;14.93;76.59
18918;BME280;9591;52.742;13.650;2023-04-08T10:52:18;102000.75;;;14.96;78.80
18918;BME280;9591;52.742;13.650;2023-04-08T10:55:06;102003.13;;;15.33;73.61
18918;BME280;9591;52.742;13.650;2023-04-08T10:57:54;101968.16;;;15.15;76.99
18918;BME280;9591;52.742;13.650;2023-04-08T11:00:42;101998.69;;;15.34;75.95
18918;BME280;9591;52.742;13.650;2023-04-08T11:03:31;101996.19;;;15.28;77.09
18918;BME280;9591;52.742;13.650;2023-04-08T11:06:18;101996.25;;;14.69;75.26
18918;BME280;9591;52.742;13.650;2023-04-08T11:09:05;102006.09;;;14.67;79.15
18918;BME280;9591;52.742;13.650;2023-04-08T11:11:52;101997.13;;;14.69;78.82
18918;BME280;9591;52.742;13.650;2023-04-08T11:14:41;101995.47;;;14.65;78.67
18918;BME280;9591;52.742;13.650;2023-04-08T11:17:28;102001.34;;;15.06;77.18
18918;BME280;9591;52.742;13.650;2023-04-08T11:20:16;101993.84;;;14.89;76.92
18918;BME280;9591;52.742;13.650;2023-04-08T11:23:02;101993.09;;;15.14;73.98
18918;BME280;9591;52.742;13.650;2023-04-08T11:25:50;101999.31;;;14.85;74.69
18918;BME280;9591;52.742;13.650;2023-04-08T11:28:41;102007.63;;;14.45;73.87
18918;BME280;9591;52.742;13.650;2023-04-08T11:31:31;101997.59;;;14.82;74.86
18918;BME280;9591;52.742;13.650;2023-04-08T11:34:21;101999.34;;;15.13;73.95
18918;BME280;9591;52.742;13.650;2023-04-08T11:37:09;101995.31;;;14.99;75.49
18918;BME280;9591;52.742;13.650;2023-04-08T11:39:56;102002.88;;;15.13;75.42
18918;BME280;9591;52.742;13.650;2023-04-08T11:42:42;102001.16;;;14.83;74.27
18918;BME280;9591;52.742;13.650;2023-04-08T11:45:37;102004.31;;;14.95;74.83
18918;BME280;9591;52.742;13.650;2023-04-08T11:48:25;102006.75;;;15.03;74.92
18918;BME280;9591;52.742;13.650;2023-04-08T11:51:13;102010.13;;;15.09;72.62
18918;BME280;9591;52.742;13.650;2023-04-08T11:54:03;102005.22;;;15.24;71.35
18918;BME280;9591;52.742;13.650;2023-04-08T11:56:50;102001.63;;;14.97;73.37
18918;BME280;9591;52.742;13.650;2023-04-08T11:59:37;102000.22;;;15.13;75.53
18918;BME280;9591;52.742;13.650;2023-04-08T12:02:24;102007.47;;;15.37;72.66
18918;BME280;9591;52.742;13.650;2023-04-08T12:05:12;102003.63;;;15.46;72.16
18918;BME280;9591;52.742;13.650;2023-04-08T12:08:00;102005.13;;;15.27;72.83
18918;BME280;9591;52.742;13.650;2023-04-08T12:10:47;102005.78;;;15.05;72.98
18918;BME280;9591;52.742;13.650;2023-04-08T12:13:33;102001.25;;;15.09;72.96
18918;BME280;9591;52.742;13.650;2023-04-08T12:16:20;101992.59;;;15.01;70.89
18918;BME280;9591;52.742;13.650;2023-04-08T12:19:07;101998.63;;;15.07;69.86
18918;BME280;9591;52.742;13.650;2023-04-08T12:21:55;102000.56;;;15.02;70.63
18918;BME280;9591;52.742;13.650;2023-04-08T12:24:42;101995.81;;;15.40;71.72
18918;BME280;9591;52.742;13.650;2023-04-08T12:27:29;101992.06;;;15.18;72.69
18918;BME280;9591;52.742;13.650;2023-04-08T12:30:17;101995.75;;;15.14;73.12
18918;BME280;9591;52.742;13.650;2023-04-08T12:33:04;101991.06;;;15.22;72.03
18918;BME280;9591;52.742;13.650;2023-04-08T12:35:51;102000.31;;;15.38;69.54
18918;BME280;9591;52.742;13.650;2023-04-08T12:38:39;101998.09;;;15.79;70.57
18918;BME280;9591;52.742;13.650;2023-04-08T12:41:26;101993.88;;;15.45;68.84
18918;BME280;9591;52.742;13.650;2023-04-08T12:44:13;101994.53;;;15.24;69.15
18918;BME280;9591;52.742;13.650;2023-04-08T12:47:00;101993.59;;;15.26;71.18
18918;BME280;9591;52.742;13.650;2023-04-08T12:49:46;101994.34;;;15.02;70.67
18918;BME280;9591;52.742;13.650;2023-04-08T12:52:34;101996.22;;;14.98;70.27
18918;BME280;9591;52.742;13.650;2023-04-08T12:55:22;101983.16;;;14.89;73.30
18918;BME280;9591;52.742;13.650;2023-04-08T12:58:10;101990.88;;;14.98;72.69
18918;BME280;9591;52.742;13.650;2023-04-08T13:00:57;101981.06;;;15.28;74.40
18918;BME280;9591;52.742;13.650;2023-04-08T13:03:44;101986.84;;;15.69;72.67
18918;BME280;9591;52.742;13.650;2023-04-08T13:06:32;101981.31;;;16.00;65.49
18918;BME280;9591;52.742;13.650;2023-04-08T13:09:19;101975.06;;;16.49;65.80
18918;BME280;9591;52.742;13.650;2023-04-08T13:12:12;101977.50;;;16.07;64.28
18918;BME280;9591;52.742;13.650;2023-04-08T13:15:00;101969.38;;;16.10;66.13
18918;BME280;9591;52.742;13.650;2023-04-08T13:17:47;101977.66;;;15.51;68.72
18918;BME280;9591;52.742;13.650;2023-04-08T13:20:35;101965.41;;;15.44;69.91
18918;BME280;9591;52.742;13.650;2023-04-08T13:23:22;101965.59;;;15.66;68.00
18918;BME280;9591;52.742;13.650;2023-04-08T13:26:09;101971.06;;;15.61;66.75
18918;BME280;9591;52.742;13.650;2023-04-08T13:28:57;101953.63;;;15.51;66.96
18918;BME280;9591;52.742;13.650;2023-04-08T13:31:44;101960.25;;;15.66;67.77
18918;BME280;9591;52.742;13.650;2023-04-08T13:34:31;101966.91;;;15.79;64.73
18918;BME280;9591;52.742;13.650;2023-04-08T13:37:17;101958.03;;;15.79;63.91
18918;BME280;9591;52.742;13.650;2023-04-08T13:40:05;101956.50;;;16.21;64.51
18918;BME280;9591;52.742;13.650;2023-04-08T13:42:53;101954.31;;;16.56;63.55
18918;BME280;9591;52.742;13.650;2023-04-08T13:45:41;101953.28;;;16.83;62.83
18918;BME280;9591;52.742;13.650;2023-04-08T13:48:28;101963.59;;;16.70;59.37
18918;BME280;9591;52.742;13.650;2023-04-08T13:51:15;101957.69;;;16.61;59.58
18918;BME280;9591;52.742;13.650;2023-04-08T13:54:02;101962.09;;;16.62;63.02
18918;BME280;9591;52.742;13.650;2023-04-08T13:56:49;101950.69;;;17.03;60.74
18918;BME280;9591;52.742;13.650;2023-04-08T13:59:36;101955.38;;;16.98;60.85
18918;BME280;9591;52.742;13.650;2023-04-08T14:02:24;101959.06;;;17.18;61.64
18918;BME280;9591;52.742;13.650;2023-04-08T14:05:11;101959.22;;;16.91;59.23
18918;BME280;9591;52.742;13.650;2023-04-08T14:07:58;101959.88;;;16.26;60.91
18918;BME280;9591;52.742;13.650;2023-04-08T14:10:45;101966.38;;;15.94;62.12
18918;BME280;9591;52.742;13.650;2023-04-08T14:13:32;101965.47;;;15.69;63.46
18918;BME280;9591;52.742;13.650;2023-04-08T14:16:18;101959.41;;;15.64;64.67
18918;BME280;9591;52.742;13.650;2023-04-08T14:19:07;101954.38;;;16.06;64.16
18918;BME280;9591;52.742;13.650;2023-04-08T14:21:53;101952.31;;;16.14;61.05
18918;BME280;9591;52.742;13.650;2023-04-08T14:24:41;101949.31;;;16.47;59.70
18918;BME280;9591;52.742;13.650;2023-04-08T14:27:28;101950.34;;;16.19;56.97
18918;BME280;9591;52.742;13.650;2023-04-08T14:30:15;101945.13;;;16.16;56.92
18918;BME280;9591;52.742;13.650;2023-04-08T14:33:02;101948.56;;;16.20;58.24
18918;BME280;9591;52.742;13.650;2023-04-08T14:35:52;101953.16;;;16.39;62.92
18918;BME280;9591;52.742;13.650;2023-04-08T14:38:39;101949.25;;;16.25;60.10